sensor_id;sensor_type;location;lat;lon;timestamp;temperature;humidity
10702;DHT22;5402;50.004;8.246;2023-02-08T00:00:38;-1.40;99.90
10702;DHT22;5402;50.004;8.246;2023-02-08T00:03:04;-1.40;99.90
10702;DHT22;5402;50.004;8.246;2023-02-08T00:05:33;-1.40;99.90
10702;DHT22;5402;50.004;8.246;2023-02-08T00:07:59;-1.40;99.90
10702;DHT22;5402;50.004;8.246;2023-02-08T00:10:26;-1.40;99.90
10702;DHT22;5402;50.004;8.246;2023-02-08T00:12:53;-1.40;99.90
10702;DHT22;5402;50.004;8.246;2023-02-08T00:15:21;-1.40;99.90
10702;DHT22;5402;50.004;8.246;2023-02-08T00:17:48;-1.40;99.90
10702;DHT22;5402;50.004;8.246;2023-02-08T00:20:15;-1.40;99.90
10702;DHT22;5402;50.004;8.246;2023-02-08T00:22:43;-1.40;99.90
10702;DHT22;5402;50.004;8.246;2023-02-08T00:25:10;-1.50;99.90
10702;DHT22;5402;50.004;8.246;2023-02-08T00:27:37;-1.50;99.90
10702;DHT22;5402;50.004;8.246;2023-02-08T00:30:05;-1.50;99.90
10702;DHT22;5402;50.004;8.246;2023-02-08T00:32:32;-1.50;99.90
10702;DHT22;5402;50.004;8.246;2023-02-08T00:34:58;-1.50;99.90
10702;DHT22;5402;50.004;8.246;2023-02-08T00:37:25;-1.60;99.90
10702;DHT22;5402;50.004;8.246;2023-02-08T00:39:53;-1.60;99.90
10702;DHT22;5402;50.004;8.246;2023-02-08T00:42:20;-1.60;99.90
10702;DHT22;5402;50.004;8.246;2023-02-08T00:44:47;-1.70;99.90
10702;DHT22;5402;50.004;8.246;2023-02-08T00:47:14;-1.70;99.90
10702;DHT22;5402;50.004;8.246;2023-02-08T00:49:40;-1.80;99.90
10702;DHT22;5402;50.004;8.246;2023-02-08T00:52:07;-1.80;99.90
10702;DHT22;5402;50.004;8.246;2023-02-08T00:54:34;-1.80;99.90
10702;DHT22;5402;50.004;8.246;2023-02-08T00:57:02;-1.80;99.90
10702;DHT22;5402;50.004;8.246;2023-02-08T00:59:29;-1.80;99.90
10702;DHT22;5402;50.004;8.246;2023-02-08T01:01:56;-1.80;99.90
10702;DHT22;5402;50.004;8.246;2023-02-08T01:04:22;-1.90;99.90
10702;DHT22;5402;50.004;8.246;2023-02-08T01:06:49;-1.80;99.90
10702;DHT22;5402;50.004;8.246;2023-02-08T01:09:16;-1.80;99.90
10702;DHT22;5402;50.004;8.246;2023-02-08T01:11:43;-1.80;99.90
10702;DHT22;5402;50.004;8.246;2023-02-08T01:14:11;-1.90;99.90
10702;DHT22;5402;50.004;8.246;2023-02-08T01:16:38;-1.90;99.90
10702;DHT22;5402;50.004;8.246;2023-02-08T01:19:05;-1.90;99.90
10702;DHT22;5402;50.004;8.246;2023-02-08T01:21:33;-1.90;99.90
10702;DHT22;5402;50.004;8.246;2023-02-08T01:24:01;-2.00;99.90
10702;DHT22;5402;50.004;8.246;2023-02-08T01:26:28;-2.00;99.90
10702;DHT22;5402;50.004;8.246;2023-02-08T01:28:55;-2.00;99.90
10702;DHT22;5402;50.004;8.246;2023-02-08T01:31:25;-2.10;99.90
10702;DHT22;5402;50.004;8.246;2023-02-08T01:33:53;-2.10;99.90
10702;DHT22;5402;50.004;8.246;2023-02-08T01:36:21;-2.10;99.90
10702;DHT22;5402;50.004;8.246;2023-02-08T01:38:48;-2.10;99.90
10702;DHT22;5402;50.004;8.246;2023-02-08T01:41:22;-2.00;99.90
10702;DHT22;5402;50.004;8.246;2023-02-08T01:44:02;-2.00;99.90
10702;DHT22;5402;50.004;8.246;2023-02-08T01:46:32;-2.00;99.90
10702;DHT22;5402;50.004;8.246;2023-02-08T01:49:01;-2.00;99.90
10702;DHT22;5402;50.004;8.246;2023-02-08T01:51:33;-2.10;99.90
10702;DHT22;5402;50.004;8.246;2023-02-08T01:54:02;-2.00;99.90
10702;DHT22;5402;50.004;8.246;2023-02-08T01:56:32;-2.10;99.90
10702;DHT22;5402;50.004;8.246;2023-02-08T01:59:04;-2.10;99.90
10702;DHT22;5402;50.004;8.246;2023-02-08T02:01:33;-2.10;99.90
10702;DHT22;5402;50.004;8.246;2023-02-08T02:04:02;-2.10;99.90
10702;DHT22;5402;50.004;8.246;2023-02-08T02:06:32;-2.10;99.90
10702;DHT22;5402;50.004;8.246;2023-02-08T02:09:04;-2.10;99.90
10702;DHT22;5402;50.004;8.246;2023-02-08T02:11:33;-2.10;99.90
10702;DHT22;5402;50.004;8.246;2023-02-08T02:14:00;-2.20;99.90
10702;DHT22;5402;50.004;8.246;2023-02-08T02:16:27;-2.30;99.90
10702;DHT22;5402;50.004;8.246;2023-02-08T02:18:55;-2.20;99.90
10702;DHT22;5402;50.004;8.246;2023-02-08T02:21:43;-2.20;99.90
10702;DHT22;5402;50.004;8.246;2023-02-08T02:24:35;-2.20;99.90
10702;DHT22;5402;50.004;8.246;2023-02-08T02:27:12;-2.20;99.90
10702;DHT22;5402;50.004;8.246;2023-02-08T02:32:59;-2.30;99.90
10702;DHT22;5402;50.004;8.246;2023-02-08T02:35:35;-2.30;99.90
10702;DHT22;5402;50.004;8.246;2023-02-08T02:38:10;-2.30;99.90
10702;DHT22;5402;50.004;8.246;2023-02-08T02:40:43;-2.30;99.90
10702;DHT22;5402;50.004;8.246;2023-02-08T02:43:15;-2.30;99.90
10702;DHT22;5402;50.004;8.246;2023-02-08T02:46:04;-2.30;99.90
10702;DHT22;5402;50.004;8.246;2023-02-08T02:48:39;-2.30;99.90
10702;DHT22;5402;50.004;8.246;2023-02-08T02:51:09;-2.30;99.90
10702;DHT22;5402;50.004;8.246;2023-02-08T02:53:43;-2.30;99.90
10702;DHT22;5402;50.004;8.246;2023-02-08T02:56:16;-2.30;99.90
10702;DHT22;5402;50.004;8.246;2023-02-08T02:58:44;-2.40;99.90
10702;DHT22;5402;50.004;8.246;2023-02-08T03:01:11;-2.50;99.90
10702;DHT22;5402;50.004;8.246;2023-02-08T03:03:40;-2.50;99.90
10702;DHT22;5402;50.004;8.246;2023-02-08T03:06:11;-2.50;99.90
10702;DHT22;5402;50.004;8.246;2023-02-08T03:09:07;-2.50;99.90
10702;DHT22;5402;50.004;8.246;2023-02-08T03:11:39;-2.50;99.90
10702;DHT22;5402;50.004;8.246;2023-02-08T03:14:23;-2.50;99.90
10702;DHT22;5402;50.004;8.246;2023-02-08T03:17:04;-2.50;99.90
10702;DHT22;5402;50.004;8.246;2023-02-08T03:19:39;-2.50;99.90
10702;DHT22;5402;50.004;8.246;2023-02-08T03:22:13;-2.60;99.90
10702;DHT22;5402;50.004;8.246;2023-02-08T03:24:48;-2.60;99.90
10702;DHT22;5402;50.004;8.246;2023-02-08T03:27:21;-2.60;99.90
10702;DHT22;5402;50.004;8.246;2023-02-08T03:29:54;-2.70;99.90
10702;DHT22;5402;50.004;8.246;2023-02-08T03:32:25;-2.70;99.90
10702;DHT22;5402;50.004;8.246;2023-02-08T03:34:57;-2.60;99.90
10702;DHT22;5402;50.004;8.246;2023-02-08T03:37:28;-2.60;99.90
10702;DHT22;5402;50.004;8.246;2023-02-08T03:39:59;-2.70;99.90
10702;DHT22;5402;50.004;8.246;2023-02-08T03:42:27;-2.70;99.90
10702;DHT22;5402;50.004;8.246;2023-02-08T03:44:58;-2.70;99.90
10702;DHT22;5402;50.004;8.246;2023-02-08T03:47:33;-2.70;99.90
10702;DHT22;5402;50.004;8.246;2023-02-08T03:50:05;-2.60;99.90
10702;DHT22;5402;50.004;8.246;2023-02-08T03:52:34;-2.70;99.90
10702;DHT22;5402;50.004;8.246;2023-02-08T03:55:04;-2.60;99.90
10702;DHT22;5402;50.004;8.246;2023-02-08T03:57:34;-2.60;99.90
10702;DHT22;5402;50.004;8.246;2023-02-08T04:00:07;-2.60;99.90
10702;DHT22;5402;50.004;8.246;2023-02-08T04:02:37;-2.70;99.90
10702;DHT22;5402;50.004;8.246;2023-02-08T04:05:08;-2.70;99.90
10702;DHT22;5402;50.004;8.246;2023-02-08T04:07:35;-2.70;99.90
10702;DHT22;5402;50.004;8.246;2023-02-08T04:10:03;-2.70;99.90
10702;DHT22;5402;50.004;8.246;2023-02-08T04:12:29;-2.70;99.90
10702;DHT22;5402;50.004;8.246;2023-02-08T04:14:56;-2.70;99.90
10702;DHT22;5402;50.004;8.246;2023-02-08T04:17:23;-2.70;99.90
10702;DHT22;5402;50.004;8.246;2023-02-08T04:19:50;-2.60;99.90
10702;DHT22;5402;50.004;8.246;2023-02-08T04:22:18;-2.70;99.90
10702;DHT22;5402;50.004;8.246;2023-02-08T04:24:44;-2.70;99.90
10702;DHT22;5402;50.004;8.246;2023-02-08T04:27:11;-2.60;99.90
10702;DHT22;5402;50.004;8.246;2023-02-08T04:29:38;-2.60;99.90
10702;DHT22;5402;50.004;8.246;2023-02-08T04:32:05;-2.60;99.90
10702;DHT22;5402;50.004;8.246;2023-02-08T04:34:36;-2.60;99.90
10702;DHT22;5402;50.004;8.246;2023-02-08T04:37:02;-2.70;99.90
10702;DHT22;5402;50.004;8.246;2023-02-08T04:39:30;-2.60;99.90
10702;DHT22;5402;50.004;8.246;2023-02-08T04:41:57;-2.70;99.90
10702;DHT22;5402;50.004;8.246;2023-02-08T04:44:24;-2.60;99.90
10702;DHT22;5402;50.004;8.246;2023-02-08T04:46:52;-2.60;99.90
10702;DHT22;5402;50.004;8.246;2023-02-08T04:49:19;-2.70;99.90
10702;DHT22;5402;50.004;8.246;2023-02-08T04:51:46;-2.60;99.90
10702;DHT22;5402;50.004;8.246;2023-02-08T04:54:13;-2.70;99.90
10702;DHT22;5402;50.004;8.246;2023-02-08T04:56:41;-2.70;99.90
10702;DHT22;5402;50.004;8.246;2023-02-08T04:59:08;-2.70;99.90
10702;DHT22;5402;50.004;8.246;2023-02-08T05:01:35;-2.70;99.90
10702;DHT22;5402;50.004;8.246;2023-02-08T05:04:02;-2.70;99.90
10702;DHT22;5402;50.004;8.246;2023-02-08T05:06:29;-2.80;99.90
10702;DHT22;5402;50.004;8.246;2023-02-08T05:08:56;-2.80;99.90
10702;DHT22;5402;50.004;8.246;2023-02-08T05:11:23;-2.80;99.90
10702;DHT22;5402;50.004;8.246;2023-02-08T05:13:52;-2.80;99.90
10702;DHT22;5402;50.004;8.246;2023-02-08T05:16:18;-2.80;99.90
10702;DHT22;5402;50.004;8.246;2023-02-08T05:18:45;-2.80;99.90
10702;DHT22;5402;50.004;8.246;2023-02-08T05:21:12;-2.80;99.90
10702;DHT22;5402;50.004;8.246;2023-02-08T05:23:41;-2.80;99.90
10702;DHT22;5402;50.004;8.246;2023-02-08T05:26:09;-2.80;99.90
10702;DHT22;5402;50.004;8.246;2023-02-08T05:28:36;-2.90;99.90
10702;DHT22;5402;50.004;8.246;2023-02-08T05:31:10;-3.00;99.90
10702;DHT22;5402;50.004;8.246;2023-02-08T05:33:36;-2.90;99.90
10702;DHT22;5402;50.004;8.246;2023-02-08T05:36:04;-3.00;99.90
10702;DHT22;5402;50.004;8.246;2023-02-08T05:38:31;-3.00;99.90
10702;DHT22;5402;50.004;8.246;2023-02-08T05:40:58;-2.90;99.90
10702;DHT22;5402;50.004;8.246;2023-02-08T05:43:25;-2.90;99.90
10702;DHT22;5402;50.004;8.246;2023-02-08T05:45:52;-2.80;99.90
10702;DHT22;5402;50.004;8.246;2023-02-08T05:48:21;-2.70;99.90
10702;DHT22;5402;50.004;8.246;2023-02-08T05:50:48;-2.50;99.90
10702;DHT22;5402;50.004;8.246;2023-02-08T05:53:14;-2.40;99.90
10702;DHT22;5402;50.004;8.246;2023-02-08T05:55:43;-2.30;99.90
10702;DHT22;5402;50.004;8.246;2023-02-08T05:58:11;-2.20;99.90
10702;DHT22;5402;50.004;8.246;2023-02-08T06:00:38;-2.10;99.90
10702;DHT22;5402;50.004;8.246;2023-02-08T06:03:04;-2.00;99.90
10702;DHT22;5402;50.004;8.246;2023-02-08T06:05:33;-1.90;99.90
10702;DHT22;5402;50.004;8.246;2023-02-08T06:08:00;-1.90;99.90
10702;DHT22;5402;50.004;8.246;2023-02-08T06:10:27;-1.90;99.90
10702;DHT22;5402;50.004;8.246;2023-02-08T06:12:53;-1.80;99.90
10702;DHT22;5402;50.004;8.246;2023-02-08T06:15:21;-1.80;99.90
10702;DHT22;5402;50.004;8.246;2023-02-08T06:17:48;-1.80;99.90
10702;DHT22;5402;50.004;8.246;2023-02-08T06:20:16;-1.80;99.90
10702;DHT22;5402;50.004;8.246;2023-02-08T06:22:44;-1.80;99.90
10702;DHT22;5402;50.004;8.246;2023-02-08T06:25:11;-1.50;99.90
10702;DHT22;5402;50.004;8.246;2023-02-08T06:27:37;-1.80;99.90
10702;DHT22;5402;50.004;8.246;2023-02-08T06:30:04;-1.80;99.90
10702;DHT22;5402;50.004;8.246;2023-02-08T06:32:31;-1.70;99.90
10702;DHT22;5402;50.004;8.246;2023-02-08T06:34:58;-1.70;99.90
10702;DHT22;5402;50.004;8.246;2023-02-08T06:37:25;-1.70;99.90
10702;DHT22;5402;50.004;8.246;2023-02-08T06:39:53;-1.70;99.90
10702;DHT22;5402;50.004;8.246;2023-02-08T06:42:20;-1.60;99.90
10702;DHT22;5402;50.004;8.246;2023-02-08T06:44:47;-1.60;99.90
10702;DHT22;5402;50.004;8.246;2023-02-08T06:47:14;-1.60;99.90
10702;DHT22;5402;50.004;8.246;2023-02-08T06:49:41;-1.60;99.90
10702;DHT22;5402;50.004;8.246;2023-02-08T06:52:08;-1.50;99.90
10702;DHT22;5402;50.004;8.246;2023-02-08T06:54:34;-1.50;99.90
10702;DHT22;5402;50.004;8.246;2023-02-08T06:57:03;-1.40;99.90
10702;DHT22;5402;50.004;8.246;2023-02-08T06:59:30;-1.40;99.90
10702;DHT22;5402;50.004;8.246;2023-02-08T07:01:56;-1.30;99.90
10702;DHT22;5402;50.004;8.246;2023-02-08T07:04:23;-1.30;99.90
10702;DHT22;5402;50.004;8.246;2023-02-08T07:06:50;-1.30;99.90
10702;DHT22;5402;50.004;8.246;2023-02-08T07:09:17;-1.20;99.90
10702;DHT22;5402;50.004;8.246;2023-02-08T07:11:44;-1.20;99.90
10702;DHT22;5402;50.004;8.246;2023-02-08T07:14:14;-1.20;99.90
10702;DHT22;5402;50.004;8.246;2023-02-08T07:16:41;-1.10;99.90
10702;DHT22;5402;50.004;8.246;2023-02-08T07:19:07;-1.10;99.90
10702;DHT22;5402;50.004;8.246;2023-02-08T07:21:34;-1.10;99.90
10702;DHT22;5402;50.004;8.246;2023-02-08T07:24:01;-1.10;99.90
10702;DHT22;5402;50.004;8.246;2023-02-08T07:26:27;-1.00;99.90
10702;DHT22;5402;50.004;8.246;2023-02-08T07:28:54;-1.00;99.90
10702;DHT22;5402;50.004;8.246;2023-02-08T07:31:22;-1.00;99.90
10702;DHT22;5402;50.004;8.246;2023-02-08T07:33:49;-0.90;99.90
10702;DHT22;5402;50.004;8.246;2023-02-08T07:36:16;-0.90;99.90
10702;DHT22;5402;50.004;8.246;2023-02-08T07:38:42;-0.90;99.90
10702;DHT22;5402;50.004;8.246;2023-02-08T07:41:11;-0.80;99.90
10702;DHT22;5402;50.004;8.246;2023-02-08T07:43:39;-0.80;99.90
10702;DHT22;5402;50.004;8.246;2023-02-08T07:46:07;-0.70;99.90
10702;DHT22;5402;50.004;8.246;2023-02-08T07:48:35;-0.70;99.90
10702;DHT22;5402;50.004;8.246;2023-02-08T07:51:02;-0.60;99.90
10702;DHT22;5402;50.004;8.246;2023-02-08T07:53:29;-0.60;99.90
10702;DHT22;5402;50.004;8.246;2023-02-08T07:55:57;-0.50;99.90
10702;DHT22;5402;50.004;8.246;2023-02-08T07:58:24;-0.40;99.90
10702;DHT22;5402;50.004;8.246;2023-02-08T08:00:51;-0.40;99.90
10702;DHT22;5402;50.004;8.246;2023-02-08T08:03:18;-0.40;99.90
10702;DHT22;5402;50.004;8.246;2023-02-08T08:05:47;-0.30;99.90
10702;DHT22;5402;50.004;8.246;2023-02-08T08:08:14;-0.20;99.90
10702;DHT22;5402;50.004;8.246;2023-02-08T08:10:40;-0.20;99.90
10702;DHT22;5402;50.004;8.246;2023-02-08T08:13:07;-0.10;99.90
10702;DHT22;5402;50.004;8.246;2023-02-08T08:15:34;0.00;99.90
10702;DHT22;5402;50.004;8.246;2023-02-08T08:18:01;0.00;99.90
10702;DHT22;5402;50.004;8.246;2023-02-08T08:20:28;0.10;99.90
10702;DHT22;5402;50.004;8.246;2023-02-08T08:22:56;0.10;99.90
10702;DHT22;5402;50.004;8.246;2023-02-08T08:25:23;0.20;99.90
10702;DHT22;5402;50.004;8.246;2023-02-08T08:27:51;0.30;99.90
10702;DHT22;5402;50.004;8.246;2023-02-08T08:30:18;0.30;99.90
10702;DHT22;5402;50.004;8.246;2023-02-08T08:32:45;0.30;99.90
10702;DHT22;5402;50.004;8.246;2023-02-08T08:35:12;0.40;99.90
10702;DHT22;5402;50.004;8.246;2023-02-08T08:37:39;0.50;99.90
10702;DHT22;5402;50.004;8.246;2023-02-08T08:40:08;0.60;99.90
10702;DHT22;5402;50.004;8.246;2023-02-08T08:42:35;0.60;99.90
10702;DHT22;5402;50.004;8.246;2023-02-08T08:45:05;0.60;99.90
10702;DHT22;5402;50.004;8.246;2023-02-08T08:47:32;0.70;99.90
10702;DHT22;5402;50.004;8.246;2023-02-08T08:49:58;0.70;99.90
10702;DHT22;5402;50.004;8.246;2023-02-08T08:52:25;1.10;99.90
10702;DHT22;5402;50.004;8.246;2023-02-08T08:54:52;0.90;99.90
10702;DHT22;5402;50.004;8.246;2023-02-08T08:57:20;1.00;99.90
10702;DHT22;5402;50.004;8.246;2023-02-08T08:59:47;1.00;99.90
10702;DHT22;5402;50.004;8.246;2023-02-08T09:02:13;1.10;99.90
10702;DHT22;5402;50.004;8.246;2023-02-08T09:04:40;1.10;99.90
10702;DHT22;5402;50.004;8.246;2023-02-08T09:07:08;1.20;99.90
10702;DHT22;5402;50.004;8.246;2023-02-08T09:09:35;1.30;99.90
10702;DHT22;5402;50.004;8.246;2023-02-08T09:12:02;1.40;99.90
10702;DHT22;5402;50.004;8.246;2023-02-08T09:14:31;1.50;99.90
10702;DHT22;5402;50.004;8.246;2023-02-08T09:16:57;1.50;99.90
10702;DHT22;5402;50.004;8.246;2023-02-08T09:19:24;1.60;99.90
10702;DHT22;5402;50.004;8.246;2023-02-08T09:21:52;1.70;99.90
10702;DHT22;5402;50.004;8.246;2023-02-08T09:24:19;1.80;99.90
10702;DHT22;5402;50.004;8.246;2023-02-08T09:26:46;1.90;99.90
10702;DHT22;5402;50.004;8.246;2023-02-08T09:29:12;2.00;99.90
10702;DHT22;5402;50.004;8.246;2023-02-08T09:31:40;2.00;99.90
10702;DHT22;5402;50.004;8.246;2023-02-08T09:34:07;2.10;99.90
10702;DHT22;5402;50.004;8.246;2023-02-08T09:36:36;2.10;99.90
10702;DHT22;5402;50.004;8.246;2023-02-08T09:39:06;2.30;99.90
10702;DHT22;5402;50.004;8.246;2023-02-08T09:41:52;2.40;99.90
10702;DHT22;5402;50.004;8.246;2023-02-08T09:44:27;2.50;99.90
10702;DHT22;5402;50.004;8.246;2023-02-08T09:47:02;2.70;99.90
10702;DHT22;5402;50.004;8.246;2023-02-08T09:49:34;2.80;99.90
10702;DHT22;5402;50.004;8.246;2023-02-08T09:52:05;2.80;99.90
10702;DHT22;5402;50.004;8.246;2023-02-08T09:54:38;2.80;99.90
10702;DHT22;5402;50.004;8.246;2023-02-08T09:57:12;2.80;99.90
10702;DHT22;5402;50.004;8.246;2023-02-08T09:59:45;2.90;99.90
10702;DHT22;5402;50.004;8.246;2023-02-08T10:02:22;3.00;99.90
10702;DHT22;5402;50.004;8.246;2023-02-08T10:04:56;3.00;99.90
10702;DHT22;5402;50.004;8.246;2023-02-08T10:07:24;3.00;99.90
10702;DHT22;5402;50.004;8.246;2023-02-08T10:09:53;3.00;99.90
10702;DHT22;5402;50.004;8.246;2023-02-08T10:12:29;3.10;99.90
10702;DHT22;5402;50.004;8.246;2023-02-08T10:15:08;3.10;99.90
10702;DHT22;5402;50.004;8.246;2023-02-08T10:20:48;3.00;99.90
10702;DHT22;5402;50.004;8.246;2023-02-08T10:23:25;3.00;99.90
10702;DHT22;5402;50.004;8.246;2023-02-08T10:26:08;3.10;99.90
10702;DHT22;5402;50.004;8.246;2023-02-08T10:29:14;3.10;99.90
10702;DHT22;5402;50.004;8.246;2023-02-08T10:31:55;3.00;99.90
10702;DHT22;5402;50.004;8.246;2023-02-08T10:34:35;3.10;99.90
10702;DHT22;5402;50.004;8.246;2023-02-08T10:37:11;3.10;99.90
10702;DHT22;5402;50.004;8.246;2023-02-08T10:39:38;3.10;99.90
10702;DHT22;5402;50.004;8.246;2023-02-08T10:42:12;3.20;99.90
10702;DHT22;5402;50.004;8.246;2023-02-08T10:44:49;3.10;99.90
10702;DHT22;5402;50.004;8.246;2023-02-08T10:47:22;3.20;99.90
10702;DHT22;5402;50.004;8.246;2023-02-08T10:49:59;3.20;99.90
10702;DHT22;5402;50.004;8.246;2023-02-08T10:52:29;3.20;99.90
10702;DHT22;5402;50.004;8.246;2023-02-08T10:54:56;3.20;99.90
10702;DHT22;5402;50.004;8.246;2023-02-08T10:57:26;3.20;99.90
10702;DHT22;5402;50.004;8.246;2023-02-08T10:59:57;3.30;99.90
10702;DHT22;5402;50.004;8.246;2023-02-08T11:02:27;3.30;99.90
10702;DHT22;5402;50.004;8.246;2023-02-08T11:04:59;3.20;99.90
10702;DHT22;5402;50.004;8.246;2023-02-08T11:07:30;3.30;99.90
10702;DHT22;5402;50.004;8.246;2023-02-08T11:10:20;3.30;99.90
10702;DHT22;5402;50.004;8.246;2023-02-08T11:12:54;3.40;99.90
10702;DHT22;5402;50.004;8.246;2023-02-08T11:15:22;3.40;99.90
10702;DHT22;5402;50.004;8.246;2023-02-08T11:17:56;3.50;99.90
10702;DHT22;5402;50.004;8.246;2023-02-08T11:20:30;3.50;99.90
10702;DHT22;5402;50.004;8.246;2023-02-08T11:22:59;3.60;99.90
10702;DHT22;5402;50.004;8.246;2023-02-08T11:25:36;3.70;99.90
10702;DHT22;5402;50.004;8.246;2023-02-08T11:28:03;3.70;99.90
10702;DHT22;5402;50.004;8.246;2023-02-08T11:30:30;3.70;99.90
10702;DHT22;5402;50.004;8.246;2023-02-08T11:33:22;3.80;99.90
10702;DHT22;5402;50.004;8.246;2023-02-08T11:35:59;3.80;99.90
10702;DHT22;5402;50.004;8.246;2023-02-08T11:38:29;3.80;99.90
10702;DHT22;5402;50.004;8.246;2023-02-08T11:40:58;3.70;99.90
10702;DHT22;5402;50.004;8.246;2023-02-08T11:43:27;3.80;99.90
10702;DHT22;5402;50.004;8.246;2023-02-08T11:45:55;3.70;99.90
10702;DHT22;5402;50.004;8.246;2023-02-08T11:48:25;3.80;99.90
10702;DHT22;5402;50.004;8.246;2023-02-08T11:50:56;3.80;99.90
10702;DHT22;5402;50.004;8.246;2023-02-08T11:53:29;3.90;99.90
10702;DHT22;5402;50.004;8.246;2023-02-08T11:56:04;4.00;99.90
10702;DHT22;5402;50.004;8.246;2023-02-08T11:58:31;4.00;99.90
10702;DHT22;5402;50.004;8.246;2023-02-08T12:01:00;4.00;99.90
10702;DHT22;5402;50.004;8.246;2023-02-08T12:03:29;4.10;99.70
10702;DHT22;5402;50.004;8.246;2023-02-08T12:06:12;4.10;99.60
10702;DHT22;5402;50.004;8.246;2023-02-08T12:08:47;4.00;99.90
10702;DHT22;5402;50.004;8.246;2023-02-08T12:11:21;4.00;99.90
10702;DHT22;5402;50.004;8.246;2023-02-08T12:14:09;3.90;99.90
10702;DHT22;5402;50.004;8.246;2023-02-08T12:17:08;3.80;99.90
10702;DHT22;5402;50.004;8.246;2023-02-08T12:20:06;3.80;99.90
10702;DHT22;5402;50.004;8.246;2023-02-08T12:22:38;3.80;99.90
10702;DHT22;5402;50.004;8.246;2023-02-08T12:25:21;3.80;99.90
10702;DHT22;5402;50.004;8.246;2023-02-08T12:27:55;3.80;99.90
10702;DHT22;5402;50.004;8.246;2023-02-08T12:30:28;3.80;99.90
10702;DHT22;5402;50.004;8.246;2023-02-08T12:33:12;3.80;99.90
10702;DHT22;5402;50.004;8.246;2023-02-08T12:35:51;3.80;99.90
10702;DHT22;5402;50.004;8.246;2023-02-08T12:38:32;3.80;99.90
10702;DHT22;5402;50.004;8.246;2023-02-08T12:41:29;3.90;99.90
10702;DHT22;5402;50.004;8.246;2023-02-08T12:44:02;3.80;99.90
10702;DHT22;5402;50.004;8.246;2023-02-08T12:46:50;3.80;99.90
10702;DHT22;5402;50.004;8.246;2023-02-08T12:49:34;3.70;99.90
10702;DHT22;5402;50.004;8.246;2023-02-08T12:52:18;3.80;99.90
10702;DHT22;5402;50.004;8.246;2023-02-08T12:54:49;3.90;99.90
10702;DHT22;5402;50.004;8.246;2023-02-08T12:57:20;4.00;99.90
10702;DHT22;5402;50.004;8.246;2023-02-08T12:59:51;4.00;99.90
10702;DHT22;5402;50.004;8.246;2023-02-08T13:02:24;4.00;99.90
10702;DHT22;5402;50.004;8.246;2023-02-08T13:04:53;4.00;99.90
10702;DHT22;5402;50.004;8.246;2023-02-08T13:07:26;4.20;99.90
10702;DHT22;5402;50.004;8.246;2023-02-08T13:09:59;4.10;99.90
10702;DHT22;5402;50.004;8.246;2023-02-08T13:12:31;4.10;99.90
10702;DHT22;5402;50.004;8.246;2023-02-08T13:15:06;4.00;99.90
10702;DHT22;5402;50.004;8.246;2023-02-08T13:17:43;4.10;99.90
10702;DHT22;5402;50.004;8.246;2023-02-08T13:20:22;4.10;99.90
10702;DHT22;5402;50.004;8.246;2023-02-08T13:22:56;4.20;99.90
10702;DHT22;5402;50.004;8.246;2023-02-08T13:25:29;4.30;99.90
10702;DHT22;5402;50.004;8.246;2023-02-08T13:28:01;4.20;99.90
10702;DHT22;5402;50.004;8.246;2023-02-08T13:30:28;4.20;99.90
10702;DHT22;5402;50.004;8.246;2023-02-08T13:32:55;4.20;99.90
10702;DHT22;5402;50.004;8.246;2023-02-08T13:35:25;4.20;99.90
10702;DHT22;5402;50.004;8.246;2023-02-08T13:37:57;4.20;99.90
10702;DHT22;5402;50.004;8.246;2023-02-08T13:40:27;4.20;99.90
10702;DHT22;5402;50.004;8.246;2023-02-08T13:43:00;4.20;99.90
10702;DHT22;5402;50.004;8.246;2023-02-08T13:45:30;4.30;99.90
10702;DHT22;5402;50.004;8.246;2023-02-08T13:48:00;4.30;99.90
10702;DHT22;5402;50.004;8.246;2023-02-08T13:50:40;4.30;99.90
10702;DHT22;5402;50.004;8.246;2023-02-08T13:53:08;4.40;99.90
10702;DHT22;5402;50.004;8.246;2023-02-08T13:55:50;4.30;99.90
10702;DHT22;5402;50.004;8.246;2023-02-08T13:58:57;4.30;99.90
10702;DHT22;5402;50.004;8.246;2023-02-08T14:01:26;4.40;99.90
10702;DHT22;5402;50.004;8.246;2023-02-08T14:04:16;4.40;99.90
10702;DHT22;5402;50.004;8.246;2023-02-08T14:06:56;4.40;99.90
10702;DHT22;5402;50.004;8.246;2023-02-08T14:09:29;4.40;99.90
10702;DHT22;5402;50.004;8.246;2023-02-08T14:12:01;4.40;99.90
10702;DHT22;5402;50.004;8.246;2023-02-08T14:14:32;4.40;99.90
10702;DHT22;5402;50.004;8.246;2023-02-08T14:17:14;4.40;99.90
10702;DHT22;5402;50.004;8.246;2023-02-08T14:19:44;4.30;99.90
10702;DHT22;5402;50.004;8.246;2023-02-08T14:22:17;4.40;99.90
10702;DHT22;5402;50.004;8.246;2023-02-08T14:24:46;4.50;99.90
10702;DHT22;5402;50.004;8.246;2023-02-08T14:27:18;4.60;99.80
10702;DHT22;5402;50.004;8.246;2023-02-08T14:29:56;4.60;99.90
10702;DHT22;5402;50.004;8.246;2023-02-08T14:32:25;4.50;99.90
10702;DHT22;5402;50.004;8.246;2023-02-08T14:34:59;4.50;99.90
10702;DHT22;5402;50.004;8.246;2023-02-08T14:37:29;4.50;99.90
10702;DHT22;5402;50.004;8.246;2023-02-08T14:40:31;4.70;99.50
10702;DHT22;5402;50.004;8.246;2023-02-08T14:43:02;4.60;99.70
10702;DHT22;5402;50.004;8.246;2023-02-08T14:45:32;4.60;99.70
10702;DHT22;5402;50.004;8.246;2023-02-08T14:48:13;4.70;99.70
10702;DHT22;5402;50.004;8.246;2023-02-08T14:51:05;4.60;99.80
10702;DHT22;5402;50.004;8.246;2023-02-08T14:53:44;4.60;99.60
10702;DHT22;5402;50.004;8.246;2023-02-08T14:56:18;4.60;99.40
10702;DHT22;5402;50.004;8.246;2023-02-08T14:58:50;4.60;99.10
10702;DHT22;5402;50.004;8.246;2023-02-08T15:01:21;4.60;98.90
10702;DHT22;5402;50.004;8.246;2023-02-08T15:03:53;4.50;99.10
10702;DHT22;5402;50.004;8.246;2023-02-08T15:06:47;4.60;98.50
10702;DHT22;5402;50.004;8.246;2023-02-08T15:09:20;4.70;98.30
10702;DHT22;5402;50.004;8.246;2023-02-08T15:11:52;4.60;98.20
10702;DHT22;5402;50.004;8.246;2023-02-08T15:14:20;4.60;98.00
10702;DHT22;5402;50.004;8.246;2023-02-08T15:16:48;4.60;98.20
10702;DHT22;5402;50.004;8.246;2023-02-08T15:19:22;4.80;98.10
10702;DHT22;5402;50.004;8.246;2023-02-08T15:21:50;4.60;98.60
10702;DHT22;5402;50.004;8.246;2023-02-08T15:24:18;4.50;98.40
10702;DHT22;5402;50.004;8.246;2023-02-08T15:26:49;4.50;98.10
10702;DHT22;5402;50.004;8.246;2023-02-08T15:29:21;4.50;98.10
10702;DHT22;5402;50.004;8.246;2023-02-08T15:31:50;4.50;98.10
10702;DHT22;5402;50.004;8.246;2023-02-08T15:34:19;4.50;97.90
10702;DHT22;5402;50.004;8.246;2023-02-08T15:36:48;4.50;98.00
10702;DHT22;5402;50.004;8.246;2023-02-08T15:39:28;4.50;98.00
10702;DHT22;5402;50.004;8.246;2023-02-08T15:41:58;4.50;97.90
10702;DHT22;5402;50.004;8.246;2023-02-08T15:44:27;4.50;98.40
10702;DHT22;5402;50.004;8.246;2023-02-08T15:46:58;4.40;98.50
10702;DHT22;5402;50.004;8.246;2023-02-08T15:49:30;4.40;98.50
10702;DHT22;5402;50.004;8.246;2023-02-08T15:51:58;4.30;98.40
10702;DHT22;5402;50.004;8.246;2023-02-08T15:54:26;4.30;98.70
10702;DHT22;5402;50.004;8.246;2023-02-08T15:56:54;4.40;98.70
10702;DHT22;5402;50.004;8.246;2023-02-08T15:59:24;4.20;99.00
10702;DHT22;5402;50.004;8.246;2023-02-08T16:01:53;4.20;99.50
10702;DHT22;5402;50.004;8.246;2023-02-08T16:04:23;4.20;99.70
10702;DHT22;5402;50.004;8.246;2023-02-08T16:06:52;4.10;99.90
10702;DHT22;5402;50.004;8.246;2023-02-08T16:09:21;4.00;99.90
10702;DHT22;5402;50.004;8.246;2023-02-08T16:11:49;3.90;99.90
10702;DHT22;5402;50.004;8.246;2023-02-08T16:14:18;3.90;99.90
10702;DHT22;5402;50.004;8.246;2023-02-08T16:16:48;3.90;99.90
10702;DHT22;5402;50.004;8.246;2023-02-08T16:19:21;3.80;99.90
10702;DHT22;5402;50.004;8.246;2023-02-08T16:21:49;3.70;99.90
10702;DHT22;5402;50.004;8.246;2023-02-08T16:24:22;3.60;99.90